sensor_id;sensor_type;location;lat;lon;timestamp;P1;durP1;ratioP1;P2;durP2;ratioP2
36321;SDS011;23564;48.290;11.460;2022-10-26T00:00:48;7.95;;;3.22;;
36321;SDS011;23564;48.290;11.460;2022-10-26T00:03:14;11.52;;;3.40;;
36321;SDS011;23564;48.290;11.460;2022-10-26T00:05:40;8.10;;;3.00;;
36321;SDS011;23564;48.290;11.460;2022-10-26T00:08:06;4.72;;;3.15;;
36321;SDS011;23564;48.290;11.460;2022-10-26T00:10:33;7.90;;;3.65;;
36321;SDS011;23564;48.290;11.460;2022-10-26T00:12:59;7.68;;;3.35;;
36321;SDS011;23564;48.290;11.460;2022-10-26T00:15:26;5.05;;;3.28;;
36321;SDS011;23564;48.290;11.460;2022-10-26T00:17:51;8.20;;;3.58;;
36321;SDS011;23564;48.290;11.460;2022-10-26T00:20:17;10.50;;;3.53;;
36321;SDS011;23564;48.290;11.460;2022-10-26T00:22:43;12.20;;;3.25;;
36321;SDS011;23564;48.290;11.460;2022-10-26T00:25:08;9.60;;;3.83;;
36321;SDS011;23564;48.290;11.460;2022-10-26T00:27:34;8.32;;;3.67;;
36321;SDS011;23564;48.290;11.460;2022-10-26T00:30:00;7.07;;;3.03;;
36321;SDS011;23564;48.290;11.460;2022-10-26T00:32:26;7.65;;;3.17;;
36321;SDS011;23564;48.290;11.460;2022-10-26T00:34:52;10.23;;;3.85;;
36321;SDS011;23564;48.290;11.460;2022-10-26T00:37:18;7.10;;;3.20;;
36321;SDS011;23564;48.290;11.460;2022-10-26T00:39:43;9.90;;;3.67;;
36321;SDS011;23564;48.290;11.460;2022-10-26T00:42:11;9.02;;;3.30;;
36321;SDS011;23564;48.290;11.460;2022-10-26T00:47:10;6.50;;;3.13;;
36321;SDS011;23564;48.290;11.460;2022-10-26T00:49:46;9.60;;;3.35;;
36321;SDS011;23564;48.290;11.460;2022-10-26T00:52:13;8.52;;;3.17;;
36321;SDS011;23564;48.290;11.460;2022-10-26T00:54:41;8.68;;;3.08;;
36321;SDS011;23564;48.290;11.460;2022-10-26T00:57:07;5.75;;;3.10;;
36321;SDS011;23564;48.290;11.460;2022-10-26T00:59:34;5.97;;;3.03;;
36321;SDS011;23564;48.290;11.460;2022-10-26T01:02:00;5.60;;;2.85;;
36321;SDS011;23564;48.290;11.460;2022-10-26T01:04:26;4.82;;;2.83;;
36321;SDS011;23564;48.290;11.460;2022-10-26T01:06:52;12.40;;;3.58;;
36321;SDS011;23564;48.290;11.460;2022-10-26T01:09:18;6.68;;;2.75;;
36321;SDS011;23564;48.290;11.460;2022-10-26T01:11:44;4.78;;;3.13;;
36321;SDS011;23564;48.290;11.460;2022-10-26T01:14:10;8.10;;;2.80;;
36321;SDS011;23564;48.290;11.460;2022-10-26T01:27:54;10.15;;;3.13;;
36321;SDS011;23564;48.290;11.460;2022-10-26T01:35:49;7.22;;;3.38;;
36321;SDS011;23564;48.290;11.460;2022-10-26T01:38:38;10.38;;;3.63;;
36321;SDS011;23564;48.290;11.460;2022-10-26T01:41:16;6.10;;;3.40;;
36321;SDS011;23564;48.290;11.460;2022-10-26T01:43:52;6.82;;;2.58;;
36321;SDS011;23564;48.290;11.460;2022-10-26T01:46:25;8.55;;;3.40;;
36321;SDS011;23564;48.290;11.460;2022-10-26T01:48:54;11.75;;;3.58;;
36321;SDS011;23564;48.290;11.460;2022-10-26T01:51:25;9.13;;;3.65;;
36321;SDS011;23564;48.290;11.460;2022-10-26T01:53:52;7.35;;;3.08;;
36321;SDS011;23564;48.290;11.460;2022-10-26T01:56:20;6.55;;;3.15;;
36321;SDS011;23564;48.290;11.460;2022-10-26T02:07:22;5.93;;;2.95;;
36321;SDS011;23564;48.290;11.460;2022-10-26T02:13:09;8.13;;;3.28;;
36321;SDS011;23564;48.290;11.460;2022-10-26T02:15:52;9.70;;;3.25;;
36321;SDS011;23564;48.290;11.460;2022-10-26T02:18:37;6.00;;;3.25;;
36321;SDS011;23564;48.290;11.460;2022-10-26T02:21:14;4.45;;;3.17;;
36321;SDS011;23564;48.290;11.460;2022-10-26T02:23:44;6.63;;;2.97;;
36321;SDS011;23564;48.290;11.460;2022-10-26T02:26:11;7.40;;;3.47;;
36321;SDS011;23564;48.290;11.460;2022-10-26T02:28:41;16.50;;;3.75;;
36321;SDS011;23564;48.290;11.460;2022-10-26T02:31:11;5.68;;;3.03;;
36321;SDS011;23564;48.290;11.460;2022-10-26T02:33:43;7.07;;;3.60;;
36321;SDS011;23564;48.290;11.460;2022-10-26T02:36:13;6.43;;;3.33;;
36321;SDS011;23564;48.290;11.460;2022-10-26T02:38:46;7.63;;;3.83;;
36321;SDS011;23564;48.290;11.460;2022-10-26T02:41:13;5.38;;;2.95;;
36321;SDS011;23564;48.290;11.460;2022-10-26T02:43:42;6.68;;;3.25;;
36321;SDS011;23564;48.290;11.460;2022-10-26T02:46:14;6.28;;;2.92;;
36321;SDS011;23564;48.290;11.460;2022-10-26T02:48:42;4.32;;;3.13;;
36321;SDS011;23564;48.290;11.460;2022-10-26T02:51:09;6.43;;;3.42;;
36321;SDS011;23564;48.290;11.460;2022-10-26T02:53:52;5.18;;;2.75;;
36321;SDS011;23564;48.290;11.460;2022-10-26T02:56:43;5.57;;;2.85;;
36321;SDS011;23564;48.290;11.460;2022-10-26T02:59:15;11.25;;;3.47;;
36321;SDS011;23564;48.290;11.460;2022-10-26T03:01:46;4.57;;;2.80;;
36321;SDS011;23564;48.290;11.460;2022-10-26T03:04:12;5.60;;;3.13;;
36321;SDS011;23564;48.290;11.460;2022-10-26T03:06:38;7.15;;;2.42;;
36321;SDS011;23564;48.290;11.460;2022-10-26T03:09:03;12.30;;;3.83;;
36321;SDS011;23564;48.290;11.460;2022-10-26T03:11:29;6.88;;;2.72;;
36321;SDS011;23564;48.290;11.460;2022-10-26T03:13:54;5.35;;;2.65;;
36321;SDS011;23564;48.290;11.460;2022-10-26T03:16:20;4.70;;;2.60;;
36321;SDS011;23564;48.290;11.460;2022-10-26T03:18:46;8.90;;;3.40;;
36321;SDS011;23564;48.290;11.460;2022-10-26T03:21:11;6.18;;;2.60;;
36321;SDS011;23564;48.290;11.460;2022-10-26T03:23:37;5.47;;;2.63;;
36321;SDS011;23564;48.290;11.460;2022-10-26T03:26:02;8.40;;;2.75;;
36321;SDS011;23564;48.290;11.460;2022-10-26T03:28:28;6.63;;;2.80;;
36321;SDS011;23564;48.290;11.460;2022-10-26T03:30:53;9.02;;;2.92;;
36321;SDS011;23564;48.290;11.460;2022-10-26T03:33:19;6.28;;;2.75;;
36321;SDS011;23564;48.290;11.460;2022-10-26T03:35:44;8.60;;;2.47;;
36321;SDS011;23564;48.290;11.460;2022-10-26T03:38:10;4.40;;;2.85;;
36321;SDS011;23564;48.290;11.460;2022-10-26T03:40:35;6.85;;;2.80;;
36321;SDS011;23564;48.290;11.460;2022-10-26T03:43:02;7.18;;;3.25;;
36321;SDS011;23564;48.290;11.460;2022-10-26T03:45:27;6.55;;;2.55;;
36321;SDS011;23564;48.290;11.460;2022-10-26T03:47:53;4.55;;;2.63;;
36321;SDS011;23564;48.290;11.460;2022-10-26T03:50:19;5.75;;;2.75;;
36321;SDS011;23564;48.290;11.460;2022-10-26T03:52:46;5.97;;;2.72;;
36321;SDS011;23564;48.290;11.460;2022-10-26T03:55:13;7.07;;;2.90;;
36321;SDS011;23564;48.290;11.460;2022-10-26T03:57:42;5.18;;;2.67;;
36321;SDS011;23564;48.290;11.460;2022-10-26T04:00:09;5.22;;;2.75;;
36321;SDS011;23564;48.290;11.460;2022-10-26T04:02:36;6.43;;;2.90;;
36321;SDS011;23564;48.290;11.460;2022-10-26T04:05:02;6.63;;;2.80;;
36321;SDS011;23564;48.290;11.460;2022-10-26T04:07:27;12.80;;;6.40;;
36321;SDS011;23564;48.290;11.460;2022-10-26T04:09:53;18.15;;;8.63;;
36321;SDS011;23564;48.290;11.460;2022-10-26T04:12:19;6.43;;;4.90;;
36321;SDS011;23564;48.290;11.460;2022-10-26T04:14:44;8.05;;;3.17;;
36321;SDS011;23564;48.290;11.460;2022-10-26T04:17:10;6.80;;;2.97;;
36321;SDS011;23564;48.290;11.460;2022-10-26T04:19:35;7.97;;;3.50;;
36321;SDS011;23564;48.290;11.460;2022-10-26T04:22:02;4.20;;;3.00;;
36321;SDS011;23564;48.290;11.460;2022-10-26T04:24:27;7.03;;;3.10;;
36321;SDS011;23564;48.290;11.460;2022-10-26T04:26:53;5.03;;;2.88;;
36321;SDS011;23564;48.290;11.460;2022-10-26T04:29:18;6.93;;;2.92;;
36321;SDS011;23564;48.290;11.460;2022-10-26T04:31:44;5.28;;;2.67;;
36321;SDS011;23564;48.290;11.460;2022-10-26T04:34:09;4.55;;;2.83;;
36321;SDS011;23564;48.290;11.460;2022-10-26T04:36:35;8.13;;;3.17;;
36321;SDS011;23564;48.290;11.460;2022-10-26T04:39:00;4.93;;;2.78;;
36321;SDS011;23564;48.290;11.460;2022-10-26T04:41:26;4.55;;;2.92;;
36321;SDS011;23564;48.290;11.460;2022-10-26T04:43:51;4.55;;;2.90;;
36321;SDS011;23564;48.290;11.460;2022-10-26T04:46:17;14.57;;;3.50;;
36321;SDS011;23564;48.290;11.460;2022-10-26T04:48:43;9.07;;;3.33;;
36321;SDS011;23564;48.290;11.460;2022-10-26T04:51:08;7.90;;;3.50;;
36321;SDS011;23564;48.290;11.460;2022-10-26T04:53:34;15.65;;;3.00;;
36321;SDS011;23564;48.290;11.460;2022-10-26T04:56:00;8.73;;;3.83;;
36321;SDS011;23564;48.290;11.460;2022-10-26T04:58:26;5.85;;;3.92;;
36321;SDS011;23564;48.290;11.460;2022-10-26T05:00:52;7.03;;;4.03;;
36321;SDS011;23564;48.290;11.460;2022-10-26T05:03:17;10.65;;;3.85;;
36321;SDS011;23564;48.290;11.460;2022-10-26T05:05:43;5.75;;;3.35;;
36321;SDS011;23564;48.290;11.460;2022-10-26T05:08:09;8.68;;;3.47;;
36321;SDS011;23564;48.290;11.460;2022-10-26T05:10:34;7.43;;;2.88;;
36321;SDS011;23564;48.290;11.460;2022-10-26T05:13:00;7.70;;;3.55;;
36321;SDS011;23564;48.290;11.460;2022-10-26T05:15:26;8.30;;;4.43;;
36321;SDS011;23564;48.290;11.460;2022-10-26T05:18:00;7.95;;;3.90;;
36321;SDS011;23564;48.290;11.460;2022-10-26T05:20:28;5.32;;;3.38;;
36321;SDS011;23564;48.290;11.460;2022-10-26T05:22:56;8.48;;;3.53;;
36321;SDS011;23564;48.290;11.460;2022-10-26T05:25:23;9.60;;;3.53;;
36321;SDS011;23564;48.290;11.460;2022-10-26T05:27:49;5.65;;;3.40;;
36321;SDS011;23564;48.290;11.460;2022-10-26T05:30:14;8.35;;;3.40;;
36321;SDS011;23564;48.290;11.460;2022-10-26T05:32:40;8.85;;;3.45;;
36321;SDS011;23564;48.290;11.460;2022-10-26T05:35:06;3.35;;;2.60;;
36321;SDS011;23564;48.290;11.460;2022-10-26T05:37:31;5.72;;;2.65;;
36321;SDS011;23564;48.290;11.460;2022-10-26T05:39:57;6.18;;;2.83;;
36321;SDS011;23564;48.290;11.460;2022-10-26T05:42:22;3.97;;;2.58;;
36321;SDS011;23564;48.290;11.460;2022-10-26T05:44:49;9.10;;;3.10;;
36321;SDS011;23564;48.290;11.460;2022-10-26T05:47:15;3.35;;;2.55;;
36321;SDS011;23564;48.290;11.460;2022-10-26T05:49:40;10.25;;;3.13;;
36321;SDS011;23564;48.290;11.460;2022-10-26T05:52:06;5.88;;;3.00;;
36321;SDS011;23564;48.290;11.460;2022-10-26T05:54:31;4.82;;;2.60;;
36321;SDS011;23564;48.290;11.460;2022-10-26T05:56:57;8.40;;;2.85;;
36321;SDS011;23564;48.290;11.460;2022-10-26T05:59:23;4.75;;;2.65;;
36321;SDS011;23564;48.290;11.460;2022-10-26T06:04:48;4.85;;;2.60;;
36321;SDS011;23564;48.290;11.460;2022-10-26T06:07:15;7.82;;;3.13;;
36321;SDS011;23564;48.290;11.460;2022-10-26T06:09:43;9.45;;;2.90;;
36321;SDS011;23564;48.290;11.460;2022-10-26T06:12:09;5.20;;;2.50;;
36321;SDS011;23564;48.290;11.460;2022-10-26T06:14:35;6.25;;;3.63;;
36321;SDS011;23564;48.290;11.460;2022-10-26T06:17:22;9.18;;;3.92;;
36321;SDS011;23564;48.290;11.460;2022-10-26T06:22:38;10.18;;;3.78;;
36321;SDS011;23564;48.290;11.460;2022-10-26T06:26:01;5.93;;;3.42;;
36321;SDS011;23564;48.290;11.460;2022-10-26T06:28:23;10.50;;;3.60;;
36321;SDS011;23564;48.290;11.460;2022-10-26T06:30:53;5.80;;;3.08;;
36321;SDS011;23564;48.290;11.460;2022-10-26T06:33:20;6.82;;;3.30;;
36321;SDS011;23564;48.290;11.460;2022-10-26T06:35:51;6.50;;;3.35;;
36321;SDS011;23564;48.290;11.460;2022-10-26T06:38:27;6.40;;;3.15;;
36321;SDS011;23564;48.290;11.460;2022-10-26T06:40:56;5.10;;;3.13;;
36321;SDS011;23564;48.290;11.460;2022-10-26T06:43:24;5.30;;;3.47;;
36321;SDS011;23564;48.290;11.460;2022-10-26T06:48:29;9.70;;;3.53;;
36321;SDS011;23564;48.290;11.460;2022-10-26T06:51:03;11.60;;;3.30;;
36321;SDS011;23564;48.290;11.460;2022-10-26T06:53:34;8.32;;;3.13;;
36321;SDS011;23564;48.290;11.460;2022-10-26T06:56:08;5.70;;;3.17;;
36321;SDS011;23564;48.290;11.460;2022-10-26T06:58:35;9.02;;;2.75;;
36321;SDS011;23564;48.290;11.460;2022-10-26T07:01:03;7.25;;;2.72;;
36321;SDS011;23564;48.290;11.460;2022-10-26T07:03:29;21.17;;;3.58;;
36321;SDS011;23564;48.290;11.460;2022-10-26T07:05:54;4.18;;;2.53;;
36321;SDS011;23564;48.290;11.460;2022-10-26T07:08:20;4.07;;;2.50;;
36321;SDS011;23564;48.290;11.460;2022-10-26T07:10:46;9.57;;;2.47;;
36321;SDS011;23564;48.290;11.460;2022-10-26T07:13:11;5.95;;;2.72;;
36321;SDS011;23564;48.290;11.460;2022-10-26T07:15:38;7.13;;;2.90;;
36321;SDS011;23564;48.290;11.460;2022-10-26T07:18:05;5.03;;;2.40;;
36321;SDS011;23564;48.290;11.460;2022-10-26T07:20:32;5.07;;;2.88;;
36321;SDS011;23564;48.290;11.460;2022-10-26T07:23:00;9.40;;;3.42;;
36321;SDS011;23564;48.290;11.460;2022-10-26T07:25:26;8.07;;;3.20;;
36321;SDS011;23564;48.290;11.460;2022-10-26T07:27:55;7.57;;;3.05;;
36321;SDS011;23564;48.290;11.460;2022-10-26T07:33:03;8.57;;;3.20;;
36321;SDS011;23564;48.290;11.460;2022-10-26T07:35:33;6.45;;;3.20;;
36321;SDS011;23564;48.290;11.460;2022-10-26T07:37:59;7.47;;;2.90;;
36321;SDS011;23564;48.290;11.460;2022-10-26T07:40:26;8.02;;;3.53;;
36321;SDS011;23564;48.290;11.460;2022-10-26T07:42:51;6.68;;;2.85;;
36321;SDS011;23564;48.290;11.460;2022-10-26T07:45:20;7.65;;;2.47;;
36321;SDS011;23564;48.290;11.460;2022-10-26T07:47:45;7.85;;;3.42;;
36321;SDS011;23564;48.290;11.460;2022-10-26T07:50:11;4.97;;;2.33;;
36321;SDS011;23564;48.290;11.460;2022-10-26T07:52:37;5.18;;;2.63;;
36321;SDS011;23564;48.290;11.460;2022-10-26T07:55:05;6.57;;;3.00;;
36321;SDS011;23564;48.290;11.460;2022-10-26T07:57:32;7.25;;;3.20;;
36321;SDS011;23564;48.290;11.460;2022-10-26T07:59:58;5.72;;;3.22;;
36321;SDS011;23564;48.290;11.460;2022-10-26T08:02:23;6.53;;;3.13;;
36321;SDS011;23564;48.290;11.460;2022-10-26T08:04:49;7.30;;;3.00;;
36321;SDS011;23564;48.290;11.460;2022-10-26T08:07:15;13.77;;;3.55;;
36321;SDS011;23564;48.290;11.460;2022-10-26T08:09:40;2.72;;;1.98;;
36321;SDS011;23564;48.290;11.460;2022-10-26T08:12:06;5.45;;;2.50;;
36321;SDS011;23564;48.290;11.460;2022-10-26T08:14:32;5.40;;;2.58;;
36321;SDS011;23564;48.290;11.460;2022-10-26T08:16:57;4.55;;;2.45;;
36321;SDS011;23564;48.290;11.460;2022-10-26T08:19:23;10.20;;;2.85;;
36321;SDS011;23564;48.290;11.460;2022-10-26T08:21:48;6.00;;;2.60;;
36321;SDS011;23564;48.290;11.460;2022-10-26T08:24:14;4.70;;;2.30;;
36321;SDS011;23564;48.290;11.460;2022-10-26T08:26:40;3.83;;;2.50;;
36321;SDS011;23564;48.290;11.460;2022-10-26T08:29:05;3.78;;;2.70;;
36321;SDS011;23564;48.290;11.460;2022-10-26T08:31:31;5.63;;;2.70;;
36321;SDS011;23564;48.290;11.460;2022-10-26T08:33:57;8.13;;;2.65;;
36321;SDS011;23564;48.290;11.460;2022-10-26T08:36:24;7.00;;;2.13;;
36321;SDS011;23564;48.290;11.460;2022-10-26T08:38:51;8.38;;;2.08;;
36321;SDS011;23564;48.290;11.460;2022-10-26T08:41:16;5.03;;;2.00;;
36321;SDS011;23564;48.290;11.460;2022-10-26T08:43:48;4.20;;;2.17;;
36321;SDS011;23564;48.290;11.460;2022-10-26T08:48:52;5.90;;;2.13;;
36321;SDS011;23564;48.290;11.460;2022-10-26T08:51:31;5.72;;;2.20;;
36321;SDS011;23564;48.290;11.460;2022-10-26T08:54:01;4.15;;;1.88;;
36321;SDS011;23564;48.290;11.460;2022-10-26T08:56:50;5.22;;;1.70;;
36321;SDS011;23564;48.290;11.460;2022-10-26T08:59:36;7.63;;;2.13;;
36321;SDS011;23564;48.290;11.460;2022-10-26T09:02:02;2.92;;;1.80;;
36321;SDS011;23564;48.290;11.460;2022-10-26T09:04:36;6.20;;;1.90;;
36321;SDS011;23564;48.290;11.460;2022-10-26T09:10:00;6.05;;;1.73;;
36321;SDS011;23564;48.290;11.460;2022-10-26T09:12:49;4.60;;;2.10;;
36321;SDS011;23564;48.290;11.460;2022-10-26T09:15:33;2.85;;;1.67;;
36321;SDS011;23564;48.290;11.460;2022-10-26T09:21:07;6.15;;;2.17;;
36321;SDS011;23564;48.290;11.460;2022-10-26T09:29:10;4.15;;;1.85;;
36321;SDS011;23564;48.290;11.460;2022-10-26T09:31:39;11.15;;;2.08;;
36321;SDS011;23564;48.290;11.460;2022-10-26T09:34:06;6.68;;;2.28;;
36321;SDS011;23564;48.290;11.460;2022-10-26T09:36:36;5.80;;;2.03;;
36321;SDS011;23564;48.290;11.460;2022-10-26T09:41:47;7.60;;;2.78;;
36321;SDS011;23564;48.290;11.460;2022-10-26T09:51:55;4.72;;;2.15;;
36321;SDS011;23564;48.290;11.460;2022-10-26T09:54:21;6.72;;;2.20;;
36321;SDS011;23564;48.290;11.460;2022-10-26T09:56:48;6.15;;;2.55;;
36321;SDS011;23564;48.290;11.460;2022-10-26T09:59:19;6.43;;;3.15;;
36321;SDS011;23564;48.290;11.460;2022-10-26T10:01:47;5.10;;;2.13;;
36321;SDS011;23564;48.290;11.460;2022-10-26T10:06:40;6.18;;;1.83;;
36321;SDS011;23564;48.290;11.460;2022-10-26T10:11:47;6.25;;;1.83;;
36321;SDS011;23564;48.290;11.460;2022-10-26T10:14:37;5.32;;;2.33;;
36321;SDS011;23564;48.290;11.460;2022-10-26T10:17:05;3.90;;;1.75;;
36321;SDS011;23564;48.290;11.460;2022-10-26T10:19:39;4.22;;;1.60;;
36321;SDS011;23564;48.290;11.460;2022-10-26T10:22:08;4.65;;;1.83;;
36321;SDS011;23564;48.290;11.460;2022-10-26T10:24:38;7.03;;;1.48;;
36321;SDS011;23564;48.290;11.460;2022-10-26T10:29:40;7.18;;;1.83;;
36321;SDS011;23564;48.290;11.460;2022-10-26T10:32:14;4.65;;;1.70;;
36321;SDS011;23564;48.290;11.460;2022-10-26T10:34:41;5.20;;;1.40;;
36321;SDS011;23564;48.290;11.460;2022-10-26T10:37:14;3.63;;;1.48;;
36321;SDS011;23564;48.290;11.460;2022-10-26T10:39:49;2.85;;;1.45;;
36321;SDS011;23564;48.290;11.460;2022-10-26T10:42:20;3.22;;;1.50;;
36321;SDS011;23564;48.290;11.460;2022-10-26T10:44:49;9.45;;;1.55;;
36321;SDS011;23564;48.290;11.460;2022-10-26T10:47:25;5.97;;;1.75;;
36321;SDS011;23564;48.290;11.460;2022-10-26T10:50:03;3.90;;;1.08;;
36321;SDS011;23564;48.290;11.460;2022-10-26T10:52:38;4.22;;;1.30;;
36321;SDS011;23564;48.290;11.460;2022-10-26T10:55:09;2.70;;;1.00;;
36321;SDS011;23564;48.290;11.460;2022-10-26T10:57:51;4.30;;;1.02;;
36321;SDS011;23564;48.290;11.460;2022-10-26T11:00:20;3.90;;;1.08;;
36321;SDS011;23564;48.290;11.460;2022-10-26T11:08:02;7.28;;;1.45;;
36321;SDS011;23564;48.290;11.460;2022-10-26T11:10:41;4.50;;;1.50;;
36321;SDS011;23564;48.290;11.460;2022-10-26T11:13:15;3.97;;;1.33;;
36321;SDS011;23564;48.290;11.460;2022-10-26T11:15:58;5.78;;;1.48;;
36321;SDS011;23564;48.290;11.460;2022-10-26T11:18:33;3.65;;;1.10;;
36321;SDS011;23564;48.290;11.460;2022-10-26T11:21:50;5.15;;;1.13;;
36321;SDS011;23564;48.290;11.460;2022-10-26T11:29:24;9.23;;;1.63;;
36321;SDS011;23564;48.290;11.460;2022-10-26T11:34:51;7.32;;;1.67;;
36321;SDS011;23564;48.290;11.460;2022-10-26T11:42:56;4.63;;;1.70;;
36321;SDS011;23564;48.290;11.460;2022-10-26T11:51:14;7.65;;;1.90;;
36321;SDS011;23564;48.290;11.460;2022-10-26T11:53:56;6.43;;;1.55;;
36321;SDS011;23564;48.290;11.460;2022-10-26T11:56:30;13.00;;;1.38;;
36321;SDS011;23564;48.290;11.460;2022-10-26T11:59:01;6.97;;;1.83;;
36321;SDS011;23564;48.290;11.460;2022-10-26T12:01:26;11.63;;;1.73;;
36321;SDS011;23564;48.290;11.460;2022-10-26T12:03:53;7.47;;;1.80;;
36321;SDS011;23564;48.290;11.460;2022-10-26T12:06:23;6.20;;;1.80;;
36321;SDS011;23564;48.290;11.460;2022-10-26T12:09:01;3.85;;;1.25;;
36321;SDS011;23564;48.290;11.460;2022-10-26T12:14:29;2.97;;;1.52;;
36321;SDS011;23564;48.290;11.460;2022-10-26T12:17:10;6.60;;;1.88;;
36321;SDS011;23564;48.290;11.460;2022-10-26T12:20:00;7.03;;;2.30;;
36321;SDS011;23564;48.290;11.460;2022-10-26T12:22:43;9.27;;;1.58;;
36321;SDS011;23564;48.290;11.460;2022-10-26T12:32:56;6.32;;;1.27;;
36321;SDS011;23564;48.290;11.460;2022-10-26T12:35:28;9.43;;;1.75;;
36321;SDS011;23564;48.290;11.460;2022-10-26T12:37:58;7.20;;;1.50;;
36321;SDS011;23564;48.290;11.460;2022-10-26T12:42:57;9.07;;;2.25;;
36321;SDS011;23564;48.290;11.460;2022-10-26T12:45:46;11.30;;;1.95;;
36321;SDS011;23564;48.290;11.460;2022-10-26T12:48:40;12.07;;;2.42;;
36321;SDS011;23564;48.290;11.460;2022-10-26T12:56:29;11.27;;;1.90;;
36321;SDS011;23564;48.290;11.460;2022-10-26T13:07:17;6.32;;;1.70;;
36321;SDS011;23564;48.290;11.460;2022-10-26T13:09:54;9.98;;;1.90;;
36321;SDS011;23564;48.290;11.460;2022-10-26T13:12:33;12.05;;;1.80;;
36321;SDS011;23564;48.290;11.460;2022-10-26T13:15:03;8.30;;;1.90;;
36321;SDS011;23564;48.290;11.460;2022-10-26T13:17:41;7.57;;;1.80;;
36321;SDS011;23564;48.290;11.460;2022-10-26T13:20:19;3.42;;;1.63;;
36321;SDS011;23564;48.290;11.460;2022-10-26T13:22:45;6.28;;;1.50;;
36321;SDS011;23564;48.290;11.460;2022-10-26T13:25:21;5.05;;;1.92;;
36321;SDS011;23564;48.290;11.460;2022-10-26T13:28:02;5.18;;;1.73;;
36321;SDS011;23564;48.290;11.460;2022-10-26T13:32:58;7.80;;;1.42;;
36321;SDS011;23564;48.290;11.460;2022-10-26T13:35:26;7.97;;;1.88;;
36321;SDS011;23564;48.290;11.460;2022-10-26T13:37:54;7.63;;;1.77;;
36321;SDS011;23564;48.290;11.460;2022-10-26T13:40:22;6.88;;;1.58;;
36321;SDS011;23564;48.290;11.460;2022-10-26T13:42:53;8.77;;;1.73;;
36321;SDS011;23564;48.290;11.460;2022-10-26T13:45:28;5.80;;;1.55;;
36321;SDS011;23564;48.290;11.460;2022-10-26T13:53:24;12.23;;;1.90;;
36321;SDS011;23564;48.290;11.460;2022-10-26T13:55:54;7.82;;;2.15;;
36321;SDS011;23564;48.290;11.460;2022-10-26T14:03:40;9.27;;;1.65;;
36321;SDS011;23564;48.290;11.460;2022-10-26T14:08:35;7.10;;;1.80;;
36321;SDS011;23564;48.290;11.460;2022-10-26T14:11:04;4.68;;;1.75;;
36321;SDS011;23564;48.290;11.460;2022-10-26T14:13:30;12.05;;;1.90;;
36321;SDS011;23564;48.290;11.460;2022-10-26T14:15:58;10.43;;;1.92;;
36321;SDS011;23564;48.290;11.460;2022-10-26T14:18:25;6.72;;;1.83;;
36321;SDS011;23564;48.290;11.460;2022-10-26T14:20:57;10.15;;;2.03;;
36321;SDS011;23564;48.290;11.460;2022-10-26T14:23:32;8.10;;;2.00;;
36321;SDS011;23564;48.290;11.460;2022-10-26T14:25:58;13.55;;;2.28;;
36321;SDS011;23564;48.290;11.460;2022-10-26T14:28:25;7.32;;;2.10;;
36321;SDS011;23564;48.290;11.460;2022-10-26T14:33:59;10.73;;;2.08;;
36321;SDS011;23564;48.290;11.460;2022-10-26T14:36:29;5.95;;;2.10;;
36321;SDS011;23564;48.290;11.460;2022-10-26T14:39:04;8.33;;;1.93;;
36321;SDS011;23564;48.290;11.460;2022-10-26T14:41:38;4.82;;;1.83;;
36321;SDS011;23564;48.290;11.460;2022-10-26T14:44:04;7.93;;;2.22;;
36321;SDS011;23564;48.290;11.460;2022-10-26T14:46:41;6.65;;;1.90;;
36321;SDS011;23564;48.290;11.460;2022-10-26T14:49:11;14.35;;;2.15;;
36321;SDS011;23564;48.290;11.460;2022-10-26T14:51:45;7.20;;;1.48;;
36321;SDS011;23564;48.290;11.460;2022-10-26T14:54:21;4.88;;;2.00;;
36321;SDS011;23564;48.290;11.460;2022-10-26T14:56:51;6.47;;;1.95;;
36321;SDS011;23564;48.290;11.460;2022-10-26T15:01:53;10.50;;;1.70;;
36321;SDS011;23564;48.290;11.460;2022-10-26T15:04:32;7.70;;;2.00;;
36321;SDS011;23564;48.290;11.460;2022-10-26T15:07:07;13.25;;;1.98;;
36321;SDS011;23564;48.290;11.460;2022-10-26T15:09:46;7.10;;;1.77;;
36321;SDS011;23564;48.290;11.460;2022-10-26T15:12:18;5.75;;;1.70;;
36321;SDS011;23564;48.290;11.460;2022-10-26T15:15:19;8.57;;;2.17;;
36321;SDS011;23564;48.290;11.460;2022-10-26T15:17:49;8.88;;;2.30;;
36321;SDS011;23564;48.290;11.460;2022-10-26T15:20:25;8.23;;;2.22;;
36321;SDS011;23564;48.290;11.460;2022-10-26T15:23:01;9.48;;;2.80;;
36321;SDS011;23564;48.290;11.460;2022-10-26T15:25:28;10.25;;;2.20;;
36321;SDS011;23564;48.290;11.460;2022-10-26T15:30:35;10.02;;;2.25;;
36321;SDS011;23564;48.290;11.460;2022-10-26T15:33:20;9.70;;;2.20;;
36321;SDS011;23564;48.290;11.460;2022-10-26T15:35:45;8.32;;;2.75;;
36321;SDS011;23564;48.290;11.460;2022-10-26T15:38:11;11.48;;;2.00;;
36321;SDS011;23564;48.290;11.460;2022-10-26T15:40:40;9.23;;;2.28;;
36321;SDS011;23564;48.290;11.460;2022-10-26T15:43:08;23.70;;;2.85;;
36321;SDS011;23564;48.290;11.460;2022-10-26T15:45:36;12.25;;;2.75;;
36321;SDS011;23564;48.290;11.460;2022-10-26T15:48:18;10.40;;;2.88;;
36321;SDS011;23564;48.290;11.460;2022-10-26T15:50:48;9.90;;;2.40;;
36321;SDS011;23564;48.290;11.460;2022-10-26T15:53:17;9.52;;;2.08;;
36321;SDS011;23564;48.290;11.460;2022-10-26T15:55:48;12.02;;;2.33;;
36321;SDS011;23564;48.290;11.460;2022-10-26T15:58:16;15.75;;;2.03;;
36321;SDS011;23564;48.290;11.460;2022-10-26T16:00:42;8.13;;;2.33;;
36321;SDS011;23564;48.290;11.460;2022-10-26T16:03:11;10.07;;;2.05;;
36321;SDS011;23564;48.290;11.460;2022-10-26T16:05:39;5.50;;;1.75;;
36321;SDS011;23564;48.290;11.460;2022-10-26T16:08:07;11.55;;;3.17;;
36321;SDS011;23564;48.290;11.460;2022-10-26T16:10:36;5.55;;;2.10;;
36321;SDS011;23564;48.290;11.460;2022-10-26T16:13:02;7.88;;;2.33;;
36321;SDS011;23564;48.290;11.460;2022-10-26T16:15:27;10.43;;;3.10;;
36321;SDS011;23564;48.290;11.460;2022-10-26T16:17:53;13.00;;;2.47;;
36321;SDS011;23564;48.290;11.460;2022-10-26T16:20:20;11.40;;;2.35;;
36321;SDS011;23564;48.290;11.460;2022-10-26T16:22:47;7.13;;;2.53;;
36321;SDS011;23564;48.290;11.460;2022-10-26T16:25:14;9.23;;;2.20;;
36321;SDS011;23564;48.290;11.460;2022-10-26T16:27:43;9.10;;;2.20;;
36321;SDS011;23564;48.290;11.460;2022-10-26T16:30:09;11.35;;;2.90;;
36321;SDS011;23564;48.290;11.460;2022-10-26T16:32:36;9.63;;;2.90;;
36321;SDS011;23564;48.290;11.460;2022-10-26T16:35:02;9.65;;;2.60;;
36321;SDS011;23564;48.290;11.460;2022-10-26T16:37:28;10.65;;;3.00;;
36321;SDS011;23564;48.290;11.460;2022-10-26T16:39:55;13.68;;;3.65;;
36321;SDS011;23564;48.290;11.460;2022-10-26T16:42:21;8.20;;;2.30;;
36321;SDS011;23564;48.290;11.460;2022-10-26T16:44:46;13.50;;;2.35;;
36321;SDS011;23564;48.290;11.460;2022-10-26T16:47:12;5.65;;;2.33;;
36321;SDS011;23564;48.290;11.460;2022-10-26T16:49:37;8.65;;;2.63;;
36321;SDS011;23564;48.290;11.460;2022-10-26T16:52:07;11.48;;;2.65;;
36321;SDS011;23564;48.290;11.460;2022-10-26T16:54:33;10.38;;;3.00;;
36321;SDS011;23564;48.290;11.460;2022-10-26T16:56:58;8.57;;;3.17;;
36321;SDS011;23564;48.290;11.460;2022-10-26T16:59:24;10.52;;;2.97;;
36321;SDS011;23564;48.290;11.460;2022-10-26T17:01:49;10.32;;;3.72;;
36321;SDS011;23564;48.290;11.460;2022-10-26T17:04:15;10.73;;;3.75;;
36321;SDS011;23564;48.290;11.460;2022-10-26T17:06:40;9.90;;;4.03;;
36321;SDS011;23564;48.290;11.460;2022-10-26T17:09:06;11.50;;;4.22;;
36321;SDS011;23564;48.290;11.460;2022-10-26T17:11:32;10.18;;;3.85;;
36321;SDS011;23564;48.290;11.460;2022-10-26T17:13:57;11.23;;;3.50;;
36321;SDS011;23564;48.290;11.460;2022-10-26T17:16:23;10.90;;;3.30;;